createdAt,value
2016-08-01T07:42:03.320Z,730
2016-08-01T07:42:56.875Z,690
2016-08-01T07:43:57.637Z,675
2016-08-01T07:44:57.691Z,615
2016-08-01T07:45:58.000Z,645
2016-08-01T07:46:57.071Z,575
2016-08-01T07:47:57.794Z,595
2016-08-01T07:48:57.834Z,610
2016-08-01T07:50:57.242Z,665
2016-08-01T07:51:57.982Z,650
2016-08-01T07:52:57.357Z,680
2016-08-01T07:53:57.412Z,745
2016-08-01T07:54:58.132Z,860
2016-08-01T07:55:57.475Z,860
2016-08-01T07:56:57.529Z,870
2016-08-01T07:57:58.320Z,975
2016-08-01T07:58:58.292Z,1000
2016-08-01T07:59:58.344Z,1040
2016-08-01T08:00:57.714Z,1030
2016-08-01T08:01:58.472Z,1010
2016-08-01T08:02:58.508Z,1055
2016-08-01T08:03:58.559Z,1010
2016-08-01T08:04:57.201Z,900
2016-08-01T08:05:57.918Z,905
2016-08-01T08:06:58.890Z,830
2016-08-01T08:07:58.055Z,810
2016-08-01T08:08:58.076Z,855
2016-08-01T08:09:58.839Z,875
2016-08-01T08:10:58.178Z,855
2016-08-01T08:11:58.222Z,960
2016-08-01T08:12:58.969Z,970
2016-08-01T08:13:59.043Z,1240
2016-08-01T08:14:58.344Z,1090
2016-08-01T08:15:59.284Z,1270
2016-08-01T08:16:58.462Z,1400
2016-08-01T08:17:59.231Z,1255
2016-08-01T08:18:59.258Z,1105
2016-08-01T08:19:58.611Z,1280
2016-08-01T08:20:59.605Z,1110
2016-08-01T08:21:59.396Z,1360
2016-08-01T08:22:58.735Z,1260
2016-08-01T08:23:58.776Z,1395
2016-08-01T08:24:59.525Z,1205
2016-08-01T08:25:59.580Z,1170
2016-08-01T08:26:58.219Z,1065
2016-08-01T08:27:59.648Z,1160
2016-08-01T08:28:58.986Z,1320
2016-08-01T08:29:59.073Z,1350
2016-08-01T08:30:59.120Z,1360
2016-08-01T08:31:59.326Z,1405
2016-08-01T08:32:59.912Z,1750
2016-08-01T08:33:59.954Z,1555
2016-08-01T08:34:59.271Z,1710
2016-08-01T08:35:59.334Z,1950
2016-08-01T08:36:59.409Z,2120
2016-08-01T08:38:00.150Z,2000
2016-08-01T08:38:58.781Z,1990
2016-08-01T08:39:59.569Z,2250
2016-08-01T08:41:00.275Z,2255
2016-08-01T08:42:00.321Z,2185
2016-08-01T08:42:59.672Z,2195
2016-08-01T08:43:59.737Z,2325
2016-08-01T08:45:00.440Z,2350
2016-08-01T08:45:59.825Z,2320
2016-08-01T08:47:00.536Z,2455
2016-08-01T08:47:59.858Z,2520
2016-08-01T08:48:59.966Z,2470
2016-08-01T08:50:00.010Z,2330
2016-08-01T08:51:00.015Z,2080
2016-08-01T08:52:00.094Z,2235
2016-08-01T08:53:00.851Z,2270
2016-08-01T08:54:00.880Z,1965
2016-08-01T08:55:00.215Z,1865
2016-08-01T08:56:00.307Z,1860
2016-08-01T08:57:01.000Z,1965
2016-08-01T08:58:01.047Z,1990
2016-08-01T08:59:00.415Z,2040
2016-08-01T09:00:00.507Z,2135
2016-08-01T09:01:01.233Z,2660
2016-08-01T09:02:01.246Z,2695
2016-08-01T09:03:00.639Z,2695
2016-08-01T09:04:01.617Z,2160
2016-08-01T09:05:00.662Z,2425
2016-08-01T09:06:01.461Z,2435
2016-08-01T09:07:00.784Z,2185
2016-08-01T09:08:01.505Z,2155
2016-08-01T09:09:00.159Z,2190
2016-08-01T09:10:00.936Z,2600
2016-08-01T09:11:01.714Z,1860
2016-08-01T09:12:01.053Z,2335
2016-08-01T09:13:01.787Z,2045
2016-08-01T09:14:01.855Z,2190
2016-08-01T09:15:01.146Z,1910
2016-08-01T09:16:01.428Z,2290
2016-08-01T09:17:01.967Z,3325
2016-08-01T09:18:00.641Z,2440
2016-08-01T09:19:02.070Z,2290
2016-08-01T09:20:01.384Z,3100
2016-08-01T09:21:01.446Z,3260
2016-08-01T09:22:01.506Z,1750
2016-08-01T09:23:00.803Z,2230
2016-08-01T09:24:01.583Z,1990
2016-08-01T09:25:01.620Z,1960
2016-08-01T09:26:02.402Z,3405
2016-08-01T09:27:02.449Z,3760
2016-08-01T09:28:01.757Z,3535
2016-08-01T09:29:02.560Z,3620
2016-08-01T09:30:01.881Z,3965
2016-08-01T09:31:01.873Z,3260
2016-08-01T09:32:01.284Z,3545
2016-08-01T09:33:01.997Z,2670
2016-08-01T09:34:02.060Z,2460
2016-08-01T09:35:02.076Z,2955
2016-08-01T09:36:02.850Z,3315
2016-08-01T09:37:00.799Z,4425
2016-08-01T09:38:02.899Z,4815
2016-08-01T09:39:02.291Z,2615
2016-08-01T09:40:02.282Z,3395
2016-08-01T09:41:02.345Z,2810
2016-08-01T09:42:03.332Z,4255
2016-08-01T09:43:03.188Z,2910
2016-08-01T09:44:03.274Z,3130
2016-08-01T09:45:01.896Z,2005
2016-08-01T09:46:03.307Z,2480
2016-08-01T09:47:01.290Z,2355
2016-08-01T09:48:02.723Z,1920
2016-08-01T09:49:03.495Z,2020
2016-08-01T09:50:03.487Z,3060
2016-08-01T09:51:02.131Z,2715
2016-08-01T09:52:03.600Z,2875
2016-08-01T09:53:03.881Z,3180
2016-08-01T09:54:03.699Z,2385
2016-08-01T09:55:03.066Z,2280
2016-08-01T09:56:03.130Z,2670
2016-08-01T09:57:03.851Z,2080
2016-08-01T09:58:03.879Z,1850
2016-08-01T09:59:03.892Z,1835
2016-08-01T10:00:03.313Z,1635
2016-08-01T10:01:03.310Z,1670
2016-08-01T10:02:04.105Z,1500
2016-08-01T10:03:03.428Z,1405
2016-08-01T10:04:04.208Z,1300
2016-08-01T10:05:04.218Z,1180
2016-08-01T10:06:04.261Z,1245
2016-08-01T10:07:03.608Z,1305
2016-08-01T10:08:04.579Z,1205
2016-08-01T10:09:04.391Z,1175
2016-08-01T10:10:04.469Z,1100
2016-08-01T10:11:04.505Z,960
2016-08-01T10:12:03.908Z,925
2016-08-01T10:13:03.897Z,855
2016-08-01T10:14:03.961Z,840
2016-08-01T10:15:04.001Z,865
2016-08-01T10:16:04.146Z,890
2016-08-01T10:17:04.794Z,895
2016-08-01T10:18:04.423Z,920
2016-08-01T10:19:05.042Z,955
2016-08-01T10:20:05.005Z,1000
2016-08-01T10:21:04.988Z,975
2016-08-01T10:22:05.027Z,820
2016-08-01T10:23:04.350Z,975
2016-08-01T10:24:05.158Z,1175
2016-08-01T10:25:05.242Z,1215
2016-08-01T10:26:04.535Z,1105
2016-08-01T10:27:05.268Z,1205
2016-08-01T10:28:05.340Z,1280
2016-08-01T10:29:04.681Z,1335
2016-08-01T10:30:05.685Z,1295
2016-08-01T10:31:05.477Z,1210
2016-08-01T10:32:05.502Z,1045
2016-08-01T10:33:04.823Z,1030
2016-08-01T10:34:05.575Z,1110
2016-08-01T10:35:04.997Z,1220
2016-08-01T10:36:04.967Z,1275
2016-08-01T10:37:05.742Z,1165
2016-08-01T10:38:05.791Z,1115
2016-08-01T10:39:04.423Z,1195
2016-08-01T10:40:06.063Z,1210
2016-08-01T10:41:05.948Z,1410
2016-08-01T10:42:05.255Z,1225
2016-08-01T10:43:04.833Z,1120
2016-08-01T10:44:05.359Z,985
2016-08-01T10:45:05.501Z,940
2016-08-01T10:46:04.734Z,970
2016-08-01T10:47:06.172Z,950
2016-08-01T10:48:05.530Z,970
2016-08-01T10:49:06.248Z,1225
2016-08-01T10:50:06.341Z,1340
2016-08-01T10:51:06.389Z,1235
2016-08-01T10:52:05.757Z,1230
2016-08-01T10:53:05.803Z,1105
2016-08-01T10:54:06.541Z,1130
2016-08-01T10:55:05.983Z,1210
2016-08-01T10:56:05.935Z,1235
2016-08-01T10:57:06.157Z,1100
2016-08-01T10:58:05.339Z,1020
2016-08-01T10:59:06.741Z,1160
2016-08-01T11:00:06.835Z,1140
2016-08-01T11:01:06.850Z,1150
2016-08-01T11:02:06.221Z,1290
2016-08-01T11:03:06.274Z,1330
2016-08-01T11:04:07.018Z,1405
2016-08-01T11:05:06.320Z,1415
2016-08-01T11:06:06.414Z,1530
2016-08-01T11:07:05.728Z,1675
2016-08-01T11:08:07.411Z,1690
2016-08-01T11:09:07.255Z,1790
2016-08-01T11:10:05.229Z,1790
2016-08-01T11:11:07.315Z,1635
2016-08-01T11:12:06.666Z,1760
2016-08-01T11:13:06.726Z,1605
2016-08-01T11:14:07.454Z,1275
2016-08-01T11:15:06.816Z,1315
2016-08-01T11:16:07.554Z,1295
2016-08-01T11:17:07.601Z,1395
2016-08-01T11:18:07.696Z,1440
2016-08-01T11:19:06.315Z,1420
2016-08-01T11:20:07.958Z,1510
2016-08-01T11:21:07.266Z,1455
2016-08-01T11:22:07.172Z,1300
2016-08-01T11:23:07.932Z,1170
2016-08-01T11:24:07.203Z,1040
2016-08-01T11:25:08.052Z,955
2016-08-01T11:26:08.255Z,945
2016-08-01T11:27:08.076Z,935
2016-08-01T11:28:07.397Z,875
2016-08-01T11:29:08.186Z,775
2016-08-01T11:30:07.471Z,785
2016-08-01T11:31:07.720Z,815
2016-08-01T11:32:07.601Z,820
2016-08-01T11:33:07.870Z,910
2016-08-01T11:34:08.598Z,960
2016-08-01T11:35:08.653Z,910
2016-08-01T11:36:08.461Z,840
2016-08-01T11:37:07.824Z,925
2016-08-01T11:38:07.915Z,1070
2016-08-01T11:39:08.621Z,1050
2016-08-01T11:40:07.981Z,1035
2016-08-01T11:41:08.037Z,945
2016-08-01T11:42:08.085Z,960
2016-08-01T11:43:08.859Z,940
2016-08-01T11:44:07.489Z,885
2016-08-01T11:45:09.726Z,945
2016-08-01T11:46:08.284Z,1045
2016-08-01T11:47:07.567Z,1030
2016-08-01T11:48:09.059Z,985
2016-08-01T11:49:09.120Z,1000
2016-08-01T11:50:08.625Z,1065
2016-08-01T11:51:09.189Z,1115
2016-08-01T11:52:08.503Z,1160
2016-08-01T11:53:08.601Z,1170
2016-08-01T11:54:09.321Z,1145
2016-08-01T11:55:08.061Z,1095
2016-08-01T11:56:09.446Z,985
2016-08-01T11:57:09.684Z,965
2016-08-01T11:58:08.833Z,1025
2016-08-01T11:59:08.853Z,1125
2016-08-01T12:00:09.809Z,1110
2016-08-01T12:01:08.928Z,1005
2016-08-01T12:02:09.719Z,985
2016-08-01T12:03:09.042Z,1025
2016-08-01T12:04:09.093Z,1055
2016-08-01T12:05:09.872Z,1125
2016-08-01T12:06:09.913Z,1180
2016-08-01T12:07:09.227Z,1180
2016-08-01T12:08:07.900Z,1110
2016-08-01T12:09:10.043Z,1095
2016-08-01T12:10:09.638Z,1190
2016-08-01T12:11:08.727Z,1175
2016-08-01T12:12:10.189Z,1245
2016-08-01T12:13:09.490Z,1345
2016-08-01T12:14:09.582Z,1540
2016-08-01T12:15:09.233Z,1455
2016-08-01T12:16:10.394Z,1235
2016-08-01T12:17:09.728Z,1090
2016-08-01T12:18:10.491Z,1025
2016-08-01T12:19:09.815Z,1015
2016-08-01T12:20:10.612Z,1090
2016-08-01T12:21:08.067Z,1115
2016-08-01T12:22:10.898Z,1355
2016-08-01T12:23:10.921Z,1480
2016-08-01T12:24:09.356Z,1515
2016-08-01T12:25:10.973Z,1440
2016-08-01T12:26:10.837Z,1380
2016-08-01T12:27:10.852Z,1280
2016-08-01T12:28:10.886Z,1210
2016-08-01T12:29:10.953Z,1200
2016-08-01T12:30:11.039Z,1335
2016-08-01T12:31:11.496Z,1380
2016-08-01T12:32:10.456Z,1330
2016-08-01T12:33:10.464Z,1270
2016-08-01T12:34:10.050Z,1250
2016-08-01T12:35:11.853Z,1315
2016-08-01T12:36:08.984Z,1240
2016-08-01T12:37:11.332Z,1340
2016-08-01T12:38:11.394Z,1430
2016-08-01T12:39:10.752Z,2325
2016-08-01T12:40:11.630Z,2410
2016-08-01T12:41:11.556Z,2180
2016-08-01T12:42:10.866Z,2020
2016-08-01T12:43:11.596Z,1470
2016-08-01T12:44:11.024Z,1610
2016-08-01T12:45:12.040Z,1750
2016-08-01T12:46:11.255Z,1435
2016-08-01T12:47:11.303Z,1065
2016-08-01T12:48:11.343Z,1040
2016-08-01T12:49:11.417Z,1090
2016-08-01T12:50:11.958Z,1070
2016-08-01T12:52:11.372Z,970
2016-08-01T12:53:12.073Z,885
2016-08-01T12:54:12.139Z,775
2016-08-01T12:55:12.193Z,785
2016-08-01T12:56:12.212Z,830
2016-08-01T12:57:10.202Z,895
2016-08-01T12:58:11.631Z,910
2016-08-01T12:59:12.849Z,860
2016-08-01T13:00:12.760Z,940
2016-08-01T13:01:12.479Z,905
2016-08-01T13:02:11.832Z,860
2016-08-01T13:03:11.878Z,985
2016-08-01T13:04:12.576Z,1035
2016-08-01T13:05:12.668Z,885
2016-08-01T13:07:12.777Z,885
2016-08-01T13:08:12.844Z,910
2016-08-01T13:09:12.823Z,1005
2016-08-01T13:10:12.212Z,1035
2016-08-01T13:11:12.235Z,1010
2016-08-01T13:12:12.253Z,1110
2016-08-01T13:13:13.242Z,965
2016-08-01T13:14:13.050Z,930
2016-08-01T13:15:13.159Z,970
2016-08-01T13:16:12.684Z,1110
2016-08-01T13:17:13.258Z,955
2016-08-01T13:18:12.572Z,1025
2016-08-01T13:19:13.322Z,1240
2016-08-01T13:20:12.036Z,1505
2016-08-01T13:21:12.680Z,1480
2016-08-01T13:22:13.424Z,1495
2016-08-01T13:23:12.794Z,1390
2016-08-01T13:24:13.036Z,1330
2016-08-01T13:25:13.171Z,1235
2016-08-01T13:26:13.615Z,1150
2016-08-01T13:27:13.680Z,1185
2016-08-01T13:28:13.752Z,935
2016-08-01T13:29:13.821Z,895
2016-08-01T13:30:13.113Z,875
2016-08-01T13:31:13.874Z,950
2016-08-01T13:32:13.910Z,1040
2016-08-01T13:33:13.264Z,1320
2016-08-01T13:34:13.291Z,1055
2016-08-01T13:35:14.235Z,1185
2016-08-01T13:36:13.633Z,1160
2016-08-01T13:37:12.954Z,1190
2016-08-01T13:38:13.461Z,1050
2016-08-01T13:39:14.342Z,935
2016-08-01T13:40:14.549Z,845
2016-08-01T13:41:13.634Z,800
2016-08-01T13:42:13.699Z,815
2016-08-01T13:43:14.422Z,905
2016-08-01T13:44:14.463Z,1055
2016-08-01T13:45:14.978Z,970
2016-08-01T13:46:13.197Z,895
2016-08-01T13:47:14.638Z,795
2016-08-01T13:48:14.900Z,835
2016-08-01T13:49:14.016Z,1020
2016-08-01T13:50:14.423Z,870
2016-08-01T13:51:14.833Z,805
2016-08-01T13:52:13.447Z,790
2016-08-01T13:53:14.910Z,1160
2016-08-01T13:54:14.261Z,1015
2016-08-01T13:55:14.359Z,1125
2016-08-01T13:56:15.013Z,1010
2016-08-01T13:57:15.081Z,930
2016-08-01T13:58:14.422Z,910
2016-08-01T13:59:14.480Z,820
2016-08-01T14:00:14.823Z,780
2016-08-01T14:01:15.471Z,775
2016-08-01T14:02:15.542Z,720
2016-08-01T14:03:14.665Z,610
2016-08-01T14:04:13.999Z,545
2016-08-01T14:05:15.466Z,565
2016-08-01T14:06:14.833Z,570
2016-08-01T14:07:14.853Z,625
2016-08-01T14:08:15.614Z,635
2016-08-01T14:09:14.925Z,615
2016-08-01T14:10:15.004Z,560
2016-08-01T14:11:15.037Z,540
2016-08-01T14:12:15.784Z,545
2016-08-01T14:13:15.360Z,600
2016-08-01T14:14:16.071Z,805
2016-08-01T14:15:15.931Z,1020
2016-08-01T14:16:15.267Z,1050
2016-08-01T14:17:16.010Z,1115
2016-08-01T14:18:15.350Z,885
2016-08-01T14:19:15.441Z,835
2016-08-01T14:20:15.466Z,885
2016-08-01T14:21:15.486Z,950
2016-08-01T14:22:16.262Z,1035
2016-08-01T14:23:15.583Z,910
2016-08-01T14:24:14.238Z,785
2016-08-01T14:25:15.715Z,750
2016-08-01T14:26:16.440Z,745
2016-08-01T14:27:15.806Z,665
2016-08-01T14:28:16.502Z,750
2016-08-01T14:29:15.882Z,850
2016-08-01T14:30:16.655Z,825
2016-08-01T14:31:16.658Z,1050
2016-08-01T14:32:15.996Z,1150
2016-08-01T14:33:16.078Z,1135
2016-08-01T14:34:16.873Z,1225
2016-08-01T14:35:17.180Z,895
2016-08-01T14:36:16.883Z,770
2016-08-01T14:37:16.916Z,750
2016-08-01T14:38:16.297Z,745
2016-08-01T14:39:16.332Z,660
2016-08-01T14:40:16.700Z,610
2016-08-01T14:41:17.324Z,660
2016-08-01T14:42:16.520Z,720
2016-08-01T14:43:17.205Z,645
2016-08-01T14:44:17.293Z,685
2016-08-01T14:45:16.783Z,715
2016-08-01T14:46:16.668Z,815
2016-08-01T14:47:15.978Z,775
2016-08-01T14:48:17.462Z,735
2016-08-01T14:49:16.798Z,675
2016-08-01T14:50:18.078Z,710
2016-08-01T14:51:16.398Z,695
2016-08-01T14:52:16.735Z,665
2016-08-01T14:53:16.964Z,670
2016-08-01T14:54:17.745Z,570
2016-08-01T14:55:17.738Z,565
2016-08-01T14:56:17.149Z,570
2016-08-01T14:57:17.900Z,480
2016-08-01T14:58:17.907Z,580
2016-08-01T14:59:17.962Z,625
2016-08-01T15:00:18.165Z,770
2016-08-01T15:01:18.019Z,735
2016-08-01T15:02:17.596Z,595
2016-08-01T15:03:18.107Z,585
2016-08-01T15:04:18.224Z,555
2016-08-01T15:05:17.530Z,545
2016-08-01T15:06:18.272Z,465
2016-08-01T15:07:17.602Z,450
2016-08-01T15:08:18.345Z,435
2016-08-01T15:09:18.400Z,450
2016-08-01T22:27:03.965Z,0
2016-08-01T22:28:02.905Z,0
2016-08-01T22:29:04.328Z,0
2016-08-01T22:30:04.394Z,0
2016-08-01T22:31:04.634Z,0
2016-08-01T22:32:04.644Z,0
2016-08-01T22:33:04.477Z,0
2016-08-01T22:34:04.535Z,0
2016-08-01T22:35:04.620Z,0
2016-08-01T22:36:04.653Z,0
2016-08-01T22:37:04.691Z,0
2016-08-01T22:38:04.004Z,0
2016-08-01T22:39:04.072Z,0
2016-08-01T22:40:04.833Z,0
2016-08-01T22:41:04.874Z,0
2016-08-01T22:42:04.891Z,0
2016-08-01T22:43:18.821Z,0
2016-08-01T22:44:04.510Z,0
2016-08-01T22:45:05.028Z,0
2016-08-01T22:46:05.089Z,0
2016-08-01T22:47:03.709Z,0
2016-08-01T22:48:04.448Z,0
2016-08-01T22:49:05.211Z,0
2016-08-01T22:50:05.242Z,0
2016-08-01T22:51:05.323Z,0
2016-08-01T22:52:05.350Z,0
2016-08-01T22:53:05.420Z,0
2016-08-01T22:54:04.057Z,0
2016-08-01T22:55:05.499Z,0
2016-08-01T22:56:05.548Z,0
2016-08-01T22:57:05.582Z,0
2016-08-01T22:58:05.610Z,0
2016-08-01T22:59:04.982Z,0
2016-08-01T23:00:04.355Z,0
2016-08-01T23:01:05.067Z,0
2016-08-01T23:02:05.810Z,0
2016-08-01T23:03:05.862Z,0
2016-08-01T23:04:05.890Z,0
2016-08-01T23:05:05.261Z,0
2016-08-01T23:06:05.320Z,0
2016-08-01T23:07:06.267Z,0
2016-08-01T23:08:06.346Z,0
2016-08-01T23:09:05.458Z,0
2016-08-01T23:10:04.798Z,0
2016-08-01T23:11:06.230Z,0
2016-08-01T23:12:06.319Z,0
2016-08-01T23:13:05.645Z,0
2016-08-01T23:14:06.391Z,0
2016-08-01T23:15:06.498Z,0
2016-08-01T23:16:06.481Z,0
2016-08-01T23:17:05.846Z,0
2016-08-01T23:18:06.542Z,0
2016-08-01T23:19:06.800Z,0
2016-08-01T23:20:06.928Z,0
2016-08-01T23:21:06.002Z,0
2016-08-01T23:22:06.739Z,0
2016-08-01T23:23:06.098Z,0
2016-08-01T23:24:06.163Z,0
2016-08-01T23:25:06.967Z,0
2016-08-01T23:26:06.227Z,0
2016-08-01T23:27:06.964Z,0
2016-08-01T23:28:07.030Z,0
2016-08-01T23:29:07.039Z,0
2016-08-01T23:30:06.444Z,0
2016-08-01T23:31:06.466Z,0
2016-08-01T23:32:07.194Z,0
2016-08-01T23:33:07.243Z,0
2016-08-01T23:34:06.586Z,0
2016-08-01T23:35:06.198Z,0
2016-08-01T23:36:07.392Z,0
2016-08-01T23:37:07.437Z,0
2016-08-01T23:38:06.768Z,0
2016-08-01T23:39:07.492Z,0
2016-08-01T23:40:07.689Z,0
2016-08-01T23:41:06.887Z,0
2016-08-01T23:42:07.651Z,0
2016-08-01T23:43:07.717Z,0
2016-08-01T23:44:07.068Z,0
2016-08-01T23:45:07.838Z,0
2016-08-01T23:46:07.830Z,0
2016-08-01T23:47:07.879Z,0
2016-08-01T23:48:07.239Z,0
2016-08-01T23:49:08.034Z,0
2016-08-01T23:50:08.431Z,0
2016-08-01T23:51:08.063Z,0
2016-08-01T23:52:07.438Z,0
2016-08-01T23:53:08.182Z,0
2016-08-01T23:54:08.216Z,0
2016-08-01T23:55:08.580Z,0
2016-08-01T23:56:36.725Z,0
2016-08-01T23:57:08.373Z,0
2016-08-01T23:58:08.366Z,0
2016-08-01T23:59:08.465Z,0
